»·PEaware :: N149CD KVNY-KSAN

N149CD :: KVNY-KSAN

FLIGHT INFORMATION

Flight Status: Arrived
Operator: Privately registered:
United States
More flights under this callsign
Pilot: Nathan E. (30132)
Aircraft: CIRRUS SR-22
(SR22)
More flights by this aircraft type
Origin: KVNY Van Nuys
United States
Destination: KSAN San Diego Intl-Lindbergh
United States
More flights between these airports :: More routes between these airports
Route: ADAMM3 ADAMM V459 SLI V23 MZB
File this flight plan on PilotEdge
Remarks: TEC route BURP39
Altitude:
(Current/Filed)
9,000ft
Speed:
(Current/Filed)
170kts
Departed: 08-Jan-21 03:36 PM
Arrived: 08-Jan-21 04:49 PM
Distance/Time
Traveled:
110nm/1:12
Distance/Time
To Go:
Arrived

Flight Plot

Page will automatically refresh every two minutes.

Flight plan parsing failed; only flown route is shown


Map Options




Map Legend


Flown Route
Filed Route
Departure Airport
Arrival Airport
Navaid (VOR, NDB)
Fix

Horizontal Profiles

Position Reports

Time Latitude Longitude Heading Altitude Ground
Speed
08-Jan-21 15:13 34.208083 -118.491770 90 804ft 0kts
08-Jan-21 15:14 34.208083 -118.491770 90 804ft 0kts
08-Jan-21 15:15 34.208083 -118.491770 90 804ft 0kts
08-Jan-21 15:16 34.208083 -118.491770 90 804ft 0kts
08-Jan-21 15:17 34.208083 -118.491770 90 804ft 0kts
08-Jan-21 15:18 34.208083 -118.491770 90 804ft 0kts
08-Jan-21 15:19 34.208083 -118.491770 90 804ft 0kts
08-Jan-21 15:20 34.208083 -118.491770 90 804ft 0kts
08-Jan-21 15:21 34.208083 -118.491770 90 804ft 0kts
08-Jan-21 15:22 34.208083 -118.491770 90 804ft 0kts
08-Jan-21 15:23 34.208083 -118.491770 90 804ft 0kts
08-Jan-21 15:24 34.208083 -118.491770 90 804ft 0kts
08-Jan-21 15:25 34.208015 -118.491494 124 804ft 7kts
08-Jan-21 15:26 34.205467 -118.491132 176 804ft 12kts
08-Jan-21 15:27 34.201799 -118.490529 166 804ft 13kts
08-Jan-21 15:28 34.198195 -118.490114 175 804ft 13kts
08-Jan-21 15:29 34.196575 -118.489885 355 804ft 0kts
08-Jan-21 15:30 34.196575 -118.489885 355 804ft 0kts
08-Jan-21 15:31 34.196575 -118.489885 355 804ft 0kts
08-Jan-21 15:32 34.196575 -118.489885 355 804ft 0kts
08-Jan-21 15:33 34.196575 -118.489885 355 804ft 0kts
08-Jan-21 15:34 34.197054 -118.489732 79 804ft 8kts
08-Jan-21 15:35 34.211540 -118.490760 357 1083ft 114kts
08-Jan-21 15:36 34.238223 -118.508687 265 2375ft 130kts
08-Jan-21 15:37 34.232743 -118.553608 264 3478ft 128kts
08-Jan-21 15:38 34.226784 -118.596923 264 4466ft 126kts
08-Jan-21 15:39 34.220864 -118.639422 264 5356ft 125kts
08-Jan-21 15:40 34.232708 -118.669368 351 6153ft 119kts
08-Jan-21 15:41 34.266865 -118.672142 351 6912ft 121kts
08-Jan-21 15:42 34.301116 -118.675058 351 7597ft 121kts
08-Jan-21 15:43 34.335210 -118.678138 351 8181ft 121kts
08-Jan-21 15:44 34.344219 -118.648293 131 8690ft 152kts
08-Jan-21 15:45 34.312418 -118.611356 113 9024ft 159kts
08-Jan-21 15:46 34.290123 -118.560387 111 9005ft 170kts
08-Jan-21 15:47 34.266851 -118.507287 111 9003ft 171kts
08-Jan-21 15:48 34.243285 -118.454202 111 9001ft 168kts
08-Jan-21 15:49 34.220240 -118.402756 111 9001ft 165kts
08-Jan-21 15:50 34.197759 -118.352510 111 9000ft 161kts
08-Jan-21 15:51 34.177251 -118.299370 111 9000ft 170kts
08-Jan-21 15:52 34.138784 -118.266801 157 9003ft 170kts
08-Jan-21 15:53 34.092732 -118.240513 155 9004ft 178kts
08-Jan-21 15:54 34.045854 -118.212641 154 8980ft 180kts
08-Jan-21 15:55 33.999528 -118.184704 153 8984ft 180kts
08-Jan-21 15:56 33.952892 -118.156571 152 8987ft 180kts
08-Jan-21 15:57 33.906001 -118.128299 151 8987ft 180kts
08-Jan-21 15:59 33.859484 -118.100375 152 8982ft 177kts
08-Jan-21 16:00 33.814847 -118.072966 147 8984ft 170kts
08-Jan-21 16:01 33.772319 -118.045622 133 8968ft 163kts
08-Jan-21 16:02 33.739359 -118.003125 134 8977ft 174kts
08-Jan-21 16:03 33.703206 -117.960020 135 8972ft 176kts
08-Jan-21 16:04 33.667168 -117.917424 135 8972ft 176kts
08-Jan-21 16:05 33.632100 -117.876056 134 9007ft 175kts
08-Jan-21 16:06 33.596146 -117.833698 134 9009ft 176kts
08-Jan-21 16:07 33.560757 -117.792066 134 9008ft 177kts
08-Jan-21 16:08 33.525145 -117.750199 134 8910ft 183kts
08-Jan-21 16:09 33.486382 -117.704671 135 8063ft 201kts
08-Jan-21 16:09 33.452481 -117.664955 136 7258ft 203kts
08-Jan-21 16:10 33.411746 -117.617290 136 6291ft 202kts
08-Jan-21 16:12 33.365552 -117.563303 136 5362ft 196kts
08-Jan-21 16:13 33.329944 -117.521814 134 4979ft 160kts
08-Jan-21 16:14 33.299238 -117.485950 134 4986ft 150kts
08-Jan-21 16:14 33.274338 -117.456923 134 4989ft 149kts
08-Jan-21 16:16 33.234687 -117.415274 161 4991ft 167kts
08-Jan-21 16:16 33.197690 -117.399632 160 5001ft 170kts
08-Jan-21 16:17 33.152859 -117.380743 159 5005ft 171kts
08-Jan-21 16:18 33.108167 -117.361928 158 5009ft 169kts
08-Jan-21 16:19 33.063790 -117.343271 158 5009ft 168kts
08-Jan-21 16:20 33.019614 -117.324730 159 5009ft 169kts
08-Jan-21 16:21 32.975147 -117.306082 159 5010ft 169kts
08-Jan-21 16:22 32.930407 -117.287338 160 4990ft 171kts
08-Jan-21 16:23 32.885397 -117.268503 160 4986ft 172kts
08-Jan-21 16:24 32.840235 -117.249624 161 4983ft 169kts
08-Jan-21 16:25 32.805933 -117.219039 101 5003ft 169kts
08-Jan-21 16:26 32.793399 -117.159988 101 4989ft 179kts
08-Jan-21 16:27 32.781246 -117.102236 101 4988ft 172kts
08-Jan-21 16:28 32.769516 -117.046497 101 4984ft 171kts
08-Jan-21 16:29 32.758106 -116.991623 100 4978ft 170kts
08-Jan-21 16:30 32.746852 -116.936600 100 4971ft 168kts
08-Jan-21 16:31 32.735970 -116.882453 100 4967ft 167kts
08-Jan-21 16:32 32.725305 -116.828691 101 4965ft 164kts
08-Jan-21 16:33 32.716105 -116.782474 100 4954ft 129kts
08-Jan-21 16:34 32.701885 -116.745978 167 4955ft 127kts
08-Jan-21 16:35 32.687140 -116.773435 270 4971ft 114kts
08-Jan-21 16:36 32.687304 -116.811529 271 4970ft 115kts
08-Jan-21 16:37 32.687805 -116.849783 271 4969ft 116kts
08-Jan-21 16:38 32.685677 -116.887936 253 4973ft 118kts
08-Jan-21 16:39 32.674927 -116.924833 253 4137ft 115kts
08-Jan-21 16:40 32.677720 -116.959788 286 3912ft 112kts
08-Jan-21 16:41 32.686050 -116.994430 287 3549ft 119kts
08-Jan-21 16:42 32.694759 -117.030148 288 2905ft 108kts
08-Jan-21 16:43 32.702891 -117.063431 287 2360ft 106kts
08-Jan-21 16:44 32.711259 -117.097768 287 1706ft 109kts
08-Jan-21 16:45 32.719533 -117.131834 287 1097ft 95kts
08-Jan-21 16:46 32.726623 -117.161053 286 471ft 81kts
08-Jan-21 16:47 32.732481 -117.185250 286 20ft 58kts
08-Jan-21 16:48 32.733842 -117.188173 13 20ft 1kts
08-Jan-21 16:49 32.733928 -117.188146 29 20ft 0kts
08-Jan-21 16:50 32.733928 -117.188146 29 20ft 0kts
08-Jan-21 16:51 32.733928 -117.188146 29 20ft 0kts
08-Jan-21 16:52 32.733928 -117.188146 29 20ft 0kts
08-Jan-21 16:53 32.733755 -117.185768 105 20ft 16kts
08-Jan-21 16:54 32.732523 -117.179932 46 20ft 9kts
08-Jan-21 16:55 32.733873 -117.178991 53 20ft 0kts

Navigation Log

Ident Type
Flight plan parsing failed, navigation log unavailable